createdAt,value
2019-05-05T00:01:31.266Z,99.90
2019-05-05T00:04:24.298Z,99.90
2019-05-05T00:06:54.890Z,99.90
2019-05-05T00:09:25.216Z,99.90
2019-05-05T00:12:17.610Z,99.90
2019-05-05T00:15:05.349Z,99.90
2019-05-05T00:17:35.082Z,99.90
2019-05-05T00:20:05.333Z,99.90
2019-05-05T00:22:35.060Z,99.90
2019-05-05T00:25:05.136Z,99.90
2019-05-05T00:27:34.842Z,99.90
2019-05-05T00:30:05.400Z,99.90
2019-05-05T00:32:34.977Z,99.90
2019-05-05T00:35:04.691Z,99.90
2019-05-05T00:37:34.635Z,99.90
2019-05-05T00:40:05.060Z,99.90
2019-05-05T00:42:35.190Z,99.90
2019-05-05T00:45:05.970Z,99.90
2019-05-05T00:47:45.075Z,99.90
2019-05-05T00:50:17.506Z,99.90
2019-05-05T00:52:47.004Z,99.90
2019-05-05T00:55:17.635Z,99.90
2019-05-05T00:57:47.120Z,99.90
2019-05-05T01:00:41.711Z,99.90
2019-05-05T01:03:11.549Z,99.90
2019-05-05T01:06:01.292Z,99.90
2019-05-05T01:08:30.821Z,99.90
2019-05-05T01:11:00.407Z,99.90
2019-05-05T01:13:29.899Z,99.90
2019-05-05T01:15:59.434Z,99.90
2019-05-05T01:18:28.935Z,99.90
2019-05-05T01:20:58.427Z,99.90
2019-05-05T01:23:28.006Z,99.90
2019-05-05T01:25:57.495Z,99.90
2019-05-05T01:28:27.086Z,99.90
2019-05-05T01:31:00.531Z,99.90
2019-05-05T01:33:35.889Z,99.90
2019-05-05T01:36:05.976Z,99.90
2019-05-05T01:38:55.254Z,99.90
2019-05-05T01:41:37.027Z,99.90
2019-05-05T01:44:06.523Z,99.90
2019-05-05T01:46:36.149Z,99.90
2019-05-05T01:49:05.743Z,99.90
2019-05-05T01:51:35.592Z,99.90
2019-05-05T01:54:05.453Z,99.90
2019-05-05T01:56:35.613Z,99.90
2019-05-05T01:59:05.393Z,99.90
2019-05-05T02:01:35.293Z,99.90
2019-05-05T02:04:05.633Z,99.90
2019-05-05T02:06:35.357Z,99.90
2019-05-05T02:09:07.138Z,99.90
2019-05-05T02:11:36.728Z,99.90
2019-05-05T02:14:08.077Z,99.90
2019-05-05T02:16:37.658Z,99.90
2019-05-05T02:19:07.310Z,99.90
2019-05-05T02:21:36.842Z,99.90
2019-05-05T02:24:06.375Z,99.90
2019-05-05T02:26:36.151Z,99.90
2019-05-05T02:29:17.211Z,99.90
2019-05-05T02:32:06.348Z,99.90
2019-05-05T02:34:39.003Z,99.90
2019-05-05T02:37:08.720Z,99.90
2019-05-05T02:39:44.831Z,99.90
2019-05-05T02:42:09.669Z,99.90
2019-05-05T02:44:39.878Z,99.90
2019-05-05T02:47:17.177Z,99.90
2019-05-05T02:49:47.167Z,99.90
2019-05-05T02:52:17.899Z,99.90
2019-05-05T02:54:53.517Z,99.90
2019-05-05T02:57:24.713Z,99.90
2019-05-05T02:59:59.403Z,99.90
2019-05-05T03:02:32.272Z,99.90
2019-05-05T03:05:04.218Z,99.90
2019-05-05T03:07:36.004Z,99.90
2019-05-05T03:10:06.172Z,99.90
2019-05-05T03:12:38.605Z,99.90
2019-05-05T03:15:08.534Z,99.90
2019-05-05T03:17:38.443Z,99.90
2019-05-05T03:20:08.466Z,99.90
2019-05-05T03:22:38.069Z,99.90
2019-05-05T03:25:07.771Z,99.90
2019-05-05T03:27:38.018Z,99.90
2019-05-05T03:30:07.876Z,99.90
2019-05-05T03:32:37.364Z,99.90
2019-05-05T03:35:07.467Z,99.90
2019-05-05T03:37:37.508Z,99.90
2019-05-05T03:40:14.797Z,99.90
2019-05-05T03:42:54.161Z,99.90
2019-05-05T03:45:44.540Z,99.90
2019-05-05T03:48:14.748Z,99.90
2019-05-05T03:50:44.693Z,99.90
2019-05-05T03:53:14.231Z,99.90
2019-05-05T03:55:44.214Z,99.90
2019-05-05T03:58:14.645Z,99.90
2019-05-05T04:01:11.829Z,99.90
2019-05-05T04:03:43.454Z,99.90
2019-05-05T04:06:14.578Z,99.90
2019-05-05T04:08:45.268Z,99.90
2019-05-05T04:11:17.761Z,99.90
2019-05-05T04:13:47.716Z,99.90
2019-05-05T04:16:26.301Z,99.90
2019-05-05T04:18:59.895Z,99.90
2019-05-05T04:21:33.633Z,99.90
2019-05-05T04:24:00.581Z,99.90
2019-05-05T04:26:33.530Z,99.90
2019-05-05T04:29:05.355Z,99.90
2019-05-05T04:31:34.692Z,99.90
2019-05-05T04:34:04.302Z,99.90
2019-05-05T04:36:34.122Z,99.90
2019-05-05T04:39:05.850Z,99.90
2019-05-05T04:41:35.532Z,99.90
2019-05-05T04:44:06.447Z,99.90
2019-05-05T04:46:36.087Z,99.90
2019-05-05T04:49:15.940Z,99.90
2019-05-05T04:51:50.301Z,99.90
2019-05-05T04:54:29.690Z,99.90
2019-05-05T04:56:59.262Z,99.90
2019-05-05T04:59:28.743Z,99.90
2019-05-05T05:02:03.908Z,99.90
2019-05-05T05:04:57.985Z,99.90
2019-05-05T05:07:27.556Z,99.90
2019-05-05T05:09:57.086Z,99.90
2019-05-05T05:12:26.649Z,99.90
2019-05-05T05:14:56.141Z,99.90
2019-05-05T05:17:33.806Z,99.90
2019-05-05T05:20:03.827Z,99.90
2019-05-05T05:22:33.493Z,99.90
2019-05-05T05:25:04.475Z,99.90
2019-05-05T05:27:34.102Z,99.90
2019-05-05T05:30:04.681Z,99.90
2019-05-05T05:32:34.311Z,99.90
2019-05-05T05:35:03.859Z,99.90
2019-05-05T05:37:34.269Z,99.90
2019-05-05T05:40:14.429Z,99.90
2019-05-05T05:42:44.066Z,99.90
2019-05-05T05:45:38.449Z,99.90
2019-05-05T05:48:30.706Z,99.90
2019-05-05T05:51:04.226Z,99.90
2019-05-05T05:53:34.879Z,99.90
2019-05-05T05:56:04.574Z,99.90
2019-05-05T05:58:36.315Z,99.20
2019-05-05T06:01:05.808Z,98.60
2019-05-05T06:03:35.276Z,98.60
2019-05-05T06:06:04.939Z,98.30
2019-05-05T06:08:34.836Z,98.60
2019-05-05T06:11:04.665Z,99.20
2019-05-05T06:13:34.218Z,97.80
2019-05-05T06:16:04.355Z,97.90
2019-05-05T06:18:35.048Z,98.10
2019-05-05T06:21:04.763Z,97.00
2019-05-05T06:23:34.500Z,98.00
2019-05-05T06:26:06.752Z,97.30
2019-05-05T06:28:35.457Z,97.00
2019-05-05T06:31:05.084Z,96.80
2019-05-05T06:33:34.918Z,96.80
2019-05-05T06:36:04.437Z,96.50
2019-05-05T06:38:34.575Z,95.90
2019-05-05T06:41:18.465Z,97.40
2019-05-05T06:44:05.441Z,96.90
2019-05-05T06:46:54.899Z,96.10
2019-05-05T06:49:24.394Z,95.90
2019-05-05T06:51:54.692Z,95.40
2019-05-05T06:54:24.477Z,94.00
2019-05-05T06:56:54.029Z,95.10
2019-05-05T06:59:24.315Z,95.60
2019-05-05T07:01:53.960Z,94.40
2019-05-05T07:04:24.539Z,96.70
2019-05-05T07:06:57.067Z,95.70
2019-05-05T07:09:25.469Z,93.50
2019-05-05T07:11:54.995Z,95.90
2019-05-05T07:14:24.461Z,95.10
2019-05-05T07:16:54.487Z,95.80
2019-05-05T07:19:24.052Z,95.70
2019-05-05T07:21:54.010Z,97.30
2019-05-05T07:24:23.980Z,94.60
2019-05-05T07:26:54.140Z,93.70
2019-05-05T07:29:24.025Z,94.10
2019-05-05T07:31:54.559Z,95.40
2019-05-05T07:34:25.676Z,94.60
2019-05-05T07:36:55.189Z,93.30
2019-05-05T07:39:24.687Z,93.70
2019-05-05T07:41:54.373Z,94.70
2019-05-05T07:44:29.338Z,96.00
2019-05-05T07:46:54.993Z,93.30
2019-05-05T07:49:24.496Z,94.40
2019-05-05T07:51:54.755Z,91.90
2019-05-05T07:54:24.546Z,94.20
2019-05-05T07:56:54.092Z,92.80
2019-05-05T07:59:23.920Z,90.90
2019-05-05T08:01:54.800Z,93.00
2019-05-05T08:04:24.454Z,94.40
2019-05-05T08:06:54.044Z,92.00
2019-05-05T08:09:24.920Z,92.80
2019-05-05T08:11:54.702Z,91.90
2019-05-05T08:14:24.639Z,90.50
2019-05-05T08:17:12.169Z,89.40
2019-05-05T08:19:50.779Z,92.10
2019-05-05T08:22:23.627Z,87.40
2019-05-05T08:25:01.136Z,91.10
2019-05-05T08:27:44.704Z,91.70
2019-05-05T08:30:20.946Z,90.00
2019-05-05T08:32:51.229Z,90.40
2019-05-05T08:35:20.750Z,92.10
2019-05-05T08:37:50.249Z,90.40
2019-05-05T08:40:19.789Z,90.60
2019-05-05T08:42:49.251Z,91.70
2019-05-05T08:45:18.742Z,87.10
2019-05-05T08:47:48.275Z,83.50
2019-05-05T08:50:17.801Z,91.30
2019-05-05T08:52:47.283Z,88.10
2019-05-05T08:55:16.782Z,91.00
2019-05-05T08:57:46.441Z,83.70
2019-05-05T09:00:16.293Z,89.50
2019-05-05T09:02:45.770Z,89.60
2019-05-05T09:05:15.460Z,87.60
2019-05-05T09:07:44.947Z,88.10
2019-05-05T09:10:14.585Z,86.70
2019-05-05T09:12:44.089Z,90.70
2019-05-05T09:15:13.887Z,91.10
2019-05-05T09:17:43.987Z,89.10
2019-05-05T09:20:14.734Z,89.80
2019-05-05T09:22:44.649Z,88.90
2019-05-05T09:25:45.111Z,87.40
2019-05-05T09:28:36.583Z,87.30
2019-05-05T09:31:06.244Z,85.50
2019-05-05T09:33:35.741Z,83.40
2019-05-05T09:36:05.516Z,84.50
2019-05-05T09:38:37.924Z,88.40
2019-05-05T09:41:07.410Z,87.60
2019-05-05T09:43:36.974Z,84.60
2019-05-05T09:46:06.451Z,85.80
2019-05-05T09:48:36.013Z,88.50
2019-05-05T09:51:05.506Z,86.20
2019-05-05T09:53:35.031Z,85.40
2019-05-05T09:56:04.534Z,84.00
2019-05-05T09:58:34.765Z,82.30
2019-05-05T10:01:05.346Z,78.30
2019-05-05T10:03:34.871Z,83.30
2019-05-05T10:06:04.989Z,83.90
2019-05-05T10:08:35.135Z,79.20
2019-05-05T10:11:04.703Z,84.30
2019-05-05T10:13:34.221Z,80.30
2019-05-05T10:16:04.579Z,80.70
2019-05-05T10:18:35.830Z,84.90
2019-05-05T10:21:05.227Z,77.20
2019-05-05T10:23:36.810Z,84.00
2019-05-05T10:26:09.169Z,81.30
2019-05-05T10:28:38.771Z,80.70
2019-05-05T10:31:08.279Z,83.30
2019-05-05T10:33:40.440Z,78.50
2019-05-05T10:36:10.379Z,76.90
2019-05-05T10:38:42.141Z,78.50
2019-05-05T10:41:13.545Z,75.40
2019-05-05T10:43:43.699Z,76.90
2019-05-05T10:46:14.376Z,74.00
2019-05-05T10:48:44.618Z,90.00
2019-05-05T10:51:14.203Z,87.30
2019-05-05T10:53:43.948Z,84.40
2019-05-05T10:56:13.788Z,81.60
2019-05-05T10:58:44.105Z,81.10
2019-05-05T11:01:14.564Z,75.00
2019-05-05T11:03:44.707Z,83.70
2019-05-05T11:06:14.306Z,74.70
2019-05-05T11:08:45.129Z,83.90
2019-05-05T11:11:14.853Z,77.70
2019-05-05T11:13:46.533Z,80.30
2019-05-05T11:16:16.063Z,82.50
2019-05-05T11:18:45.637Z,80.90
2019-05-05T11:21:15.229Z,78.20
2019-05-05T11:23:44.934Z,80.60
2019-05-05T11:26:14.528Z,80.10
2019-05-05T11:28:44.633Z,78.80
2019-05-05T11:31:14.183Z,80.40
2019-05-05T11:34:07.745Z,81.30
2019-05-05T11:36:56.072Z,80.00
2019-05-05T11:39:25.604Z,80.90
2019-05-05T11:41:55.120Z,77.50
2019-05-05T11:44:24.614Z,80.00
2019-05-05T11:46:54.661Z,82.20
2019-05-05T11:49:24.953Z,78.80
2019-05-05T11:51:55.824Z,79.90
2019-05-05T11:54:25.446Z,79.90
2019-05-05T11:56:55.075Z,81.50
2019-05-05T11:59:24.597Z,81.00
2019-05-05T12:01:55.046Z,80.60
2019-05-05T12:04:24.927Z,76.20
2019-05-05T12:06:54.472Z,81.30
2019-05-05T12:09:48.865Z,75.80
2019-05-05T12:12:18.402Z,81.20
2019-05-05T12:14:48.126Z,81.60
2019-05-05T12:17:34.342Z,79.50
2019-05-05T12:20:05.605Z,81.30
2019-05-05T12:22:35.120Z,81.00
2019-05-05T12:25:06.721Z,80.70
2019-05-05T12:27:41.216Z,77.50
2019-05-05T12:30:14.132Z,79.30
2019-05-05T12:32:43.868Z,78.90
2019-05-05T12:35:14.871Z,79.70
2019-05-05T12:37:44.626Z,81.20
2019-05-05T12:40:14.430Z,80.30
2019-05-05T12:42:44.075Z,80.40
2019-05-05T12:45:17.625Z,78.00
2019-05-05T12:48:05.141Z,78.90
2019-05-05T12:50:34.655Z,80.00
2019-05-05T12:53:04.219Z,77.70
2019-05-05T12:55:41.542Z,77.00
2019-05-05T12:58:05.583Z,74.70
2019-05-05T13:00:36.471Z,79.60
2019-05-05T13:03:06.053Z,79.30
2019-05-05T13:05:35.617Z,78.80
2019-05-05T13:08:05.355Z,77.30
2019-05-05T13:10:34.951Z,73.10
2019-05-05T13:13:04.677Z,80.50
2019-05-05T13:15:34.214Z,79.40
2019-05-05T13:18:03.775Z,79.30
2019-05-05T13:21:01.770Z,76.40
2019-05-05T13:23:47.716Z,78.10
2019-05-05T13:26:23.663Z,78.60
2019-05-05T13:28:54.261Z,79.00
2019-05-05T13:31:23.831Z,79.30
2019-05-05T13:33:54.846Z,77.90
2019-05-05T13:36:24.578Z,74.80
2019-05-05T13:38:54.655Z,74.00
2019-05-05T13:41:26.759Z,76.90
2019-05-05T13:43:57.954Z,80.80
2019-05-05T13:46:29.506Z,74.10
2019-05-05T13:49:24.041Z,79.30
2019-05-05T13:51:54.117Z,80.00
2019-05-05T13:54:24.341Z,78.80
2019-05-05T13:56:54.085Z,74.20
2019-05-05T13:59:25.519Z,77.30
2019-05-05T14:01:55.743Z,76.20
2019-05-05T14:04:25.978Z,77.40
2019-05-05T14:06:56.063Z,76.50
2019-05-05T14:09:25.672Z,78.10
2019-05-05T14:11:55.316Z,77.60
2019-05-05T14:14:24.935Z,77.60
2019-05-05T14:16:54.569Z,77.90
2019-05-05T14:19:24.816Z,75.30
2019-05-05T14:21:54.509Z,73.20
2019-05-05T14:24:36.427Z,78.20
2019-05-05T14:27:05.935Z,77.10
2019-05-05T14:29:59.189Z,77.50
2019-05-05T14:32:31.969Z,78.90
2019-05-05T14:35:23.272Z,79.90
2019-05-05T14:37:58.226Z,77.30
2019-05-05T14:40:27.847Z,77.10
2019-05-05T14:43:00.128Z,78.80
2019-05-05T14:45:33.880Z,78.80
2019-05-05T14:48:00.805Z,78.20
2019-05-05T14:50:30.323Z,78.70
2019-05-05T14:52:59.806Z,78.30
2019-05-05T14:55:29.394Z,76.40
2019-05-05T14:57:59.026Z,78.20
2019-05-05T15:00:29.294Z,76.40
2019-05-05T15:02:58.860Z,77.30
2019-05-05T15:05:54.768Z,77.60
2019-05-05T15:08:49.325Z,75.90
2019-05-05T15:11:36.588Z,75.50
2019-05-05T15:14:06.962Z,76.50
2019-05-05T15:16:36.629Z,76.70
2019-05-05T15:19:06.119Z,75.30
2019-05-05T15:21:35.636Z,78.10
2019-05-05T15:24:05.137Z,75.20
2019-05-05T15:26:34.658Z,77.50
2019-05-05T15:29:04.174Z,77.00
2019-05-05T15:31:34.174Z,76.10
2019-05-05T15:34:04.216Z,77.50
2019-05-05T15:36:33.932Z,76.30
2019-05-05T15:39:04.488Z,76.80
2019-05-05T15:41:34.208Z,77.70
2019-05-05T15:44:03.804Z,79.00
2019-05-05T15:46:33.780Z,79.00
2019-05-05T15:49:04.185Z,80.30
2019-05-05T15:51:34.381Z,82.90
2019-05-05T15:54:04.162Z,84.00
2019-05-05T15:56:34.181Z,84.00
2019-05-05T15:59:03.847Z,85.30
2019-05-05T16:01:34.532Z,85.10
2019-05-05T16:04:04.100Z,85.20
2019-05-05T16:06:34.495Z,86.60
2019-05-05T16:09:06.586Z,87.20
2019-05-05T16:11:36.071Z,87.80
2019-05-05T16:14:05.614Z,88.50
2019-05-05T16:16:55.789Z,88.80
2019-05-05T16:20:01.434Z,89.30
2019-05-05T16:22:36.875Z,88.50
2019-05-05T16:25:14.186Z,88.40
2019-05-05T16:27:44.816Z,87.90
2019-05-05T16:30:16.909Z,87.80
2019-05-05T16:32:46.379Z,88.10
2019-05-05T16:35:17.622Z,87.90
2019-05-05T16:37:47.106Z,87.50
2019-05-05T16:40:16.837Z,88.10
2019-05-05T16:42:46.399Z,88.60
2019-05-05T16:45:16.739Z,89.80
2019-05-05T16:47:46.391Z,89.60
2019-05-05T16:50:16.092Z,90.60
2019-05-05T16:52:54.623Z,90.60
2019-05-05T16:55:46.323Z,90.10
2019-05-05T16:58:15.893Z,90.50
2019-05-05T17:00:45.624Z,90.20
2019-05-05T17:03:15.269Z,90.50
2019-05-05T17:05:46.726Z,90.90
2019-05-05T17:08:16.261Z,91.30
2019-05-05T17:10:45.870Z,90.40
2019-05-05T17:13:41.679Z,90.80
2019-05-05T17:16:29.099Z,91.80
2019-05-05T17:19:15.985Z,90.70
2019-05-05T17:22:05.061Z,90.50
2019-05-05T17:24:38.627Z,90.50
2019-05-05T17:27:07.259Z,90.70
2019-05-05T17:29:36.837Z,90.60
2019-05-05T17:32:11.118Z,90.70
2019-05-05T17:34:44.921Z,90.40
2019-05-05T17:37:24.106Z,90.30
2019-05-05T17:40:09.945Z,90.70
2019-05-05T17:43:04.275Z,90.70
2019-05-05T17:45:51.371Z,91.00
2019-05-05T17:48:30.971Z,91.20
2019-05-05T17:51:19.472Z,91.40
2019-05-05T17:54:07.945Z,91.80
2019-05-05T17:56:39.761Z,91.90
2019-05-05T17:59:09.620Z,91.90
2019-05-05T18:01:41.695Z,92.10
2019-05-05T18:04:11.233Z,91.60
2019-05-05T18:06:58.601Z,91.70
2019-05-05T18:09:53.863Z,92.00
2019-05-05T18:12:54.578Z,92.10
2019-05-05T18:15:43.344Z,92.20
2019-05-05T18:18:13.936Z,91.90
2019-05-05T18:20:44.904Z,92.40
2019-05-05T18:23:15.328Z,92.00
2019-05-05T18:25:44.905Z,92.20
2019-05-05T18:28:19.703Z,91.80
2019-05-05T18:30:45.710Z,92.20
2019-05-05T18:33:17.371Z,91.80
2019-05-05T18:35:46.930Z,92.10
2019-05-05T18:38:16.690Z,92.30
2019-05-05T18:40:47.489Z,92.70
2019-05-05T18:43:24.430Z,92.80
2019-05-05T18:46:05.144Z,92.60
2019-05-05T18:48:34.753Z,92.90
2019-05-05T18:51:04.516Z,93.50
2019-05-05T18:53:37.419Z,92.70
2019-05-05T18:56:06.902Z,92.70
2019-05-05T18:58:36.967Z,92.90
2019-05-05T19:01:13.551Z,93.10
2019-05-05T19:04:00.642Z,93.20
2019-05-05T19:06:48.003Z,93.20
2019-05-05T19:09:20.532Z,93.40
2019-05-05T19:11:49.994Z,93.30
2019-05-05T19:14:24.313Z,94.50
2019-05-05T19:16:55.649Z,94.00
2019-05-05T19:19:28.661Z,93.50
2019-05-05T19:22:04.231Z,93.40
2019-05-05T19:24:35.328Z,94.50
2019-05-05T19:27:05.013Z,94.10
2019-05-05T19:29:34.804Z,94.00
2019-05-05T19:32:04.490Z,94.30
2019-05-05T19:34:35.471Z,94.50
2019-05-05T19:37:05.268Z,94.50
2019-05-05T19:39:34.949Z,93.80
2019-05-05T19:42:04.889Z,93.70
2019-05-05T19:44:34.562Z,94.10
2019-05-05T19:47:10.773Z,93.60
2019-05-05T19:49:44.614Z,93.80
2019-05-05T19:52:14.298Z,94.90
2019-05-05T19:54:47.348Z,94.30
2019-05-05T19:57:14.916Z,94.70
2019-05-05T19:59:44.806Z,94.80
2019-05-05T20:02:14.522Z,94.30
2019-05-05T20:04:44.600Z,95.50
2019-05-05T20:07:15.277Z,94.50
2019-05-05T20:09:44.938Z,94.40
2019-05-05T20:12:14.819Z,94.60
2019-05-05T20:14:45.129Z,95.00
2019-05-05T20:17:21.561Z,94.10
2019-05-05T20:19:51.015Z,95.00
2019-05-05T20:22:20.722Z,94.50
2019-05-05T20:24:50.340Z,94.60
2019-05-05T20:27:19.861Z,94.60
2019-05-05T20:29:51.483Z,94.30
2019-05-05T20:32:27.980Z,94.80
2019-05-05T20:35:06.162Z,95.30
2019-05-05T20:37:48.350Z,95.70
2019-05-05T20:40:19.559Z,94.90
2019-05-05T20:42:49.073Z,94.40
2019-05-05T20:45:23.828Z,94.00
2019-05-05T20:47:53.633Z,96.00
2019-05-05T20:50:24.723Z,94.40
2019-05-05T20:52:54.432Z,94.70
2019-05-05T20:55:25.940Z,94.40
2019-05-05T20:57:55.221Z,96.40
2019-05-05T21:00:24.697Z,95.50
2019-05-05T21:02:54.214Z,96.80
2019-05-05T21:05:24.187Z,97.00
2019-05-05T21:07:53.770Z,96.70
2019-05-05T21:10:24.139Z,95.70
2019-05-05T21:12:54.422Z,97.20
2019-05-05T21:15:24.626Z,95.30
2019-05-05T21:17:55.486Z,96.70
2019-05-05T21:20:25.068Z,96.50
2019-05-05T21:23:05.098Z,95.70
2019-05-05T21:25:40.031Z,97.80
2019-05-05T21:28:09.494Z,96.80
2019-05-05T21:30:44.928Z,96.00
2019-05-05T21:33:16.259Z,96.30
2019-05-05T21:35:55.128Z,96.20
2019-05-05T21:38:30.054Z,96.50
2019-05-05T21:40:59.721Z,96.00
2019-05-05T21:43:29.206Z,97.00
2019-05-05T21:45:58.730Z,96.30
2019-05-05T21:48:28.200Z,96.20
2019-05-05T21:51:15.608Z,96.30
2019-05-05T21:54:14.588Z,98.00
2019-05-05T21:56:53.427Z,96.40
2019-05-05T21:59:23.645Z,97.00
2019-05-05T22:01:53.425Z,97.40
2019-05-05T22:04:23.911Z,97.70
2019-05-05T22:06:54.089Z,97.90
2019-05-05T22:09:24.254Z,97.60
2019-05-05T22:11:54.453Z,96.30
2019-05-05T22:14:24.109Z,97.20
2019-05-05T22:16:54.406Z,98.50
2019-05-05T22:19:26.170Z,97.40
2019-05-05T22:22:00.659Z,96.40
2019-05-05T22:24:30.198Z,98.80
2019-05-05T22:26:59.678Z,96.80
2019-05-05T22:29:29.143Z,97.20
2019-05-05T22:31:58.634Z,97.90
2019-05-05T22:34:28.145Z,97.40
2019-05-05T22:36:57.621Z,98.90
2019-05-05T22:39:27.133Z,97.70
2019-05-05T22:41:56.639Z,98.00
2019-05-05T22:44:26.119Z,97.60
2019-05-05T22:46:55.690Z,99.40
2019-05-05T22:49:25.203Z,97.20
2019-05-05T22:51:54.681Z,98.80
2019-05-05T22:54:24.257Z,98.10
2019-05-05T22:56:53.986Z,99.50
2019-05-05T22:59:26.039Z,99.60
2019-05-05T23:01:57.561Z,99.60
2019-05-05T23:04:36.314Z,99.90
2019-05-05T23:07:24.063Z,98.10
2019-05-05T23:09:53.938Z,98.70
2019-05-05T23:12:24.377Z,99.80
2019-05-05T23:14:54.601Z,99.90
2019-05-05T23:17:30.076Z,99.90
2019-05-05T23:20:10.762Z,99.90
2019-05-05T23:22:59.185Z,99.90
2019-05-05T23:25:33.600Z,98.60
2019-05-05T23:28:04.077Z,99.90
2019-05-05T23:30:41.635Z,98.30
2019-05-05T23:33:04.903Z,99.90
2019-05-05T23:35:34.522Z,98.40
2019-05-05T23:38:04.614Z,99.80
2019-05-05T23:40:34.100Z,99.90
2019-05-05T23:43:04.507Z,99.90
2019-05-05T23:45:34.186Z,99.90
2019-05-05T23:48:03.827Z,99.10
2019-05-05T23:50:33.788Z,98.90
2019-05-05T23:53:03.370Z,99.50
2019-05-05T23:55:34.394Z,97.70
2019-05-05T23:58:04.081Z,98.40
